Time;durP1;ratioP1;P1;durP2;ratioP2;P2;SDS_P1;SDS_P2;PMS_P1;PMS_P2;Temp;Humidity;BMP_temperature;BMP_pressure;BME280_temperature;BME280_humidity;BME280_pressure;Samples;Min_cycle;Max_cycle;Signal;HPM_P1;HPM_P2
2023/10/15 00:00:57;;;;;;;1.67;0.75;;;;;;;8.39;82.80;98235.47;10372533;28;20430;-76
2023/10/15 00:05:59;;;;;;;3.13;0.50;;;;;;;8.45;82.02;98239.63;10383267;28;20045;-76
2023/10/15 00:11:01;;;;;;;1.50;0.45;;;;;;;8.46;81.95;98238.50;10351738;28;20045;-77
2023/10/15 00:16:04;;;;;;;2.97;0.50;;;;;;;8.50;81.90;98230.44;10352603;28;20049;-77
2023/10/15 00:21:12;;;;;;;3.38;0.65;;;;;;;8.44;81.83;98218.91;10409076;28;20037;-77
2023/10/15 00:26:14;;;;;;;2.20;0.60;;;;;;;8.38;81.81;98236.63;10410991;28;20046;-76
2023/10/15 00:31:24;;;;;;;5.38;0.60;;;;;;;8.35;82.79;98231.00;10367853;28;20049;-77
2023/10/15 00:36:27;;;;;;;3.08;0.70;;;;;;;8.36;82.51;98222.47;10379496;28;20480;-77
2023/10/15 00:41:29;;;;;;;2.97;0.40;;;;;;;8.33;82.72;98216.81;10399354;28;20033;-77
2023/10/15 00:46:37;;;;;;;3.05;0.50;;;;;;;8.27;82.54;98220.84;10391467;28;20068;-76
2023/10/15 00:51:44;;;;;;;2.75;0.60;;;;;;;8.20;83.41;98226.03;10418128;28;20042;-76
2023/10/15 00:56:49;;;;;;;2.58;0.70;;;;;;;8.12;84.37;98222.97;10398615;28;20040;-77
2023/10/15 01:02:12;;;;;;;1.77;0.60;;;;;;;8.04;83.73;98217.53;10430824;28;20056;-75
2023/10/15 01:07:21;;;;;;;0.52;0.40;;;;;;;8.11;84.39;98232.28;10392002;28;20038;-76
2023/10/15 01:12:30;;;;;;;1.45;0.40;;;;;;;8.11;83.98;98236.94;10370917;28;20044;-76
2023/10/15 01:17:37;;;;;;;3.70;1.00;;;;;;;7.97;84.67;98237.13;10385795;28;20595;-78
2023/10/15 01:22:40;;;;;;;2.57;1.00;;;;;;;7.92;86.11;98231.81;10375640;28;20421;-79
2023/10/15 01:27:43;;;;;;;0.80;0.50;;;;;;;7.89;87.73;98227.00;10391131;28;20654;-79
2023/10/15 01:32:49;;;;;;;2.30;0.50;;;;;;;7.80;88.99;98220.75;10399855;28;20045;-78
2023/10/15 01:38:10;;;;;;;5.22;0.85;;;;;;;7.71;89.73;98241.78;10410867;28;20037;-77
2023/10/15 01:43:16;;;;;;;1.85;0.50;;;;;;;7.66;90.50;98239.22;10393977;28;20046;-78
2023/10/15 01:48:31;;;;;;;4.95;1.10;;;;;;;7.68;89.71;98234.25;10392991;28;20046;-78
2023/10/15 01:53:37;;;;;;;3.55;0.80;;;;;;;7.75;89.14;98223.63;10398951;28;20067;-77
2023/10/15 01:58:40;;;;;;;2.85;0.47;;;;;;;7.81;87.69;98214.19;10378616;28;20955;-78
2023/10/15 02:03:42;;;;;;;2.25;1.00;;;;;;;7.81;87.54;98214.19;10410076;28;20555;-78
2023/10/15 02:08:46;;;;;;;1.92;0.55;;;;;;;7.87;88.34;98218.34;10432448;28;20037;-77
2023/10/15 02:13:49;;;;;;;1.02;0.43;;;;;;;7.81;89.72;98195.06;10404303;28;20029;-79
2023/10/15 02:18:52;;;;;;;7.07;0.60;;;;;;;7.82;89.00;98199.41;10396157;28;20164;-79
2023/10/15 02:24:06;;;;;;;3.20;0.68;;;;;;;7.87;87.86;98212.88;10446578;28;20060;-79
2023/10/15 02:29:27;;;;;;;2.83;0.50;;;;;;;7.88;87.24;98211.75;10429547;28;20519;-78
2023/10/15 02:34:30;;;;;;;4.00;0.75;;;;;;;7.92;86.73;98212.72;10439454;28;20441;-78
2023/10/15 02:39:38;;;;;;;3.53;0.40;;;;;;;7.96;86.31;98200.00;10424590;28;20717;-78
2023/10/15 02:44:44;;;;;;;0.95;0.60;;;;;;;7.98;85.45;98205.16;10401966;28;20041;-78
2023/10/15 02:49:53;;;;;;;1.70;0.63;;;;;;;8.00;84.72;98195.53;10496183;28;20429;-79
2023/10/15 02:54:55;;;;;;;3.10;0.70;;;;;;;8.02;84.22;98189.75;10433152;28;20034;-77
2023/10/15 03:00:06;;;;;;;4.78;0.60;;;;;;;8.01;84.35;98191.66;10486918;28;20059;-76
2023/10/15 03:05:15;;;;;;;0.88;0.35;;;;;;;8.00;84.63;98187.34;10418262;28;20482;-77
2023/10/15 03:10:23;;;;;;;2.78;0.57;;;;;;;7.97;84.42;98185.22;10439266;28;20048;-76
2023/10/15 03:15:25;;;;;;;2.53;0.90;;;;;;;8.00;85.18;98189.25;10500455;28;20040;-76
2023/10/15 03:20:39;;;;;;;4.30;0.85;;;;;;;7.94;84.66;98196.81;10467144;28;20053;-76
2023/10/15 03:25:41;;;;;;;1.83;0.40;;;;;;;7.92;85.26;98185.41;10446021;28;20044;-76
2023/10/15 03:30:44;;;;;;;1.20;0.52;;;;;;;7.91;85.55;98174.81;10433876;28;20045;-77
2023/10/15 03:35:54;;;;;;;3.58;1.25;;;;;;;7.91;85.94;98185.72;10474370;28;20029;-76
2023/10/15 03:41:10;;;;;;;3.22;0.60;;;;;;;7.88;86.17;98187.19;10451866;28;20048;-77
2023/10/15 03:46:19;;;;;;;3.60;0.80;;;;;;;7.79;86.68;98180.91;10436739;28;20041;-76
2023/10/15 03:51:21;;;;;;;5.03;0.88;;;;;;;7.78;86.47;98168.41;10454126;28;20040;-76
2023/10/15 03:56:29;;;;;;;2.65;0.60;;;;;;;7.76;86.20;98173.38;10467651;28;20135;-75
2023/10/15 04:01:31;;;;;;;;;;;;;;;7.78;86.86;98177.38;10439766;28;20041;-74
2023/10/15 04:06:34;;;;;;;3.20;0.95;;;;;;;7.75;85.76;98171.78;10439079;28;19925;-77
2023/10/15 04:11:43;;;;;;;5.78;0.88;;;;;;;7.78;86.33;98180.13;10408802;28;20037;-76
2023/10/15 04:16:46;;;;;;;6.90;0.70;;;;;;;7.77;85.99;98175.78;10431035;28;20420;-76
2023/10/15 04:21:52;;;;;;;3.42;0.50;;;;;;;7.77;85.62;98174.97;10421230;28;20405;-76
2023/10/15 04:26:55;;;;;;;1.33;0.60;;;;;;;7.70;85.39;98174.69;10450771;28;20033;-76
2023/10/15 04:32:00;;;;;;;2.88;0.82;;;;;;;7.70;85.59;98158.31;10479255;28;20048;-77
2023/10/15 04:37:16;;;;;;;2.20;0.88;;;;;;;7.73;85.03;98146.72;10427927;28;20041;-76
2023/10/15 04:42:28;;;;;;;3.15;0.70;;;;;;;7.68;84.77;98158.63;10459874;28;20037;-77
2023/10/15 04:47:41;;;;;;;4.75;0.60;;;;;;;7.68;84.37;98160.56;10459780;28;20044;-77
2023/10/15 04:52:46;;;;;;;4.63;0.70;;;;;;;7.62;85.13;98156.38;10461907;28;20044;-76
2023/10/15 04:57:48;;;;;;;0.68;0.22;;;;;;;7.59;85.21;98146.09;10453416;28;20033;-76
2023/10/15 05:02:52;;;;;;;1.95;0.68;;;;;;;7.55;84.97;98160.38;10458791;28;20424;-77
2023/10/15 05:07:57;;;;;;;3.33;0.63;;;;;;;7.64;85.24;98154.16;10446072;28;20041;-76
2023/10/15 05:12:59;;;;;;;2.63;1.17;;;;;;;7.56;85.19;98153.00;10445731;28;20067;-76
2023/10/15 05:18:04;;;;;;;2.58;0.45;;;;;;;7.56;84.95;98159.28;10420451;28;20508;-76
2023/10/15 05:23:06;;;;;;;4.40;0.70;;;;;;;7.63;85.06;98155.25;10396907;28;20041;-77
2023/10/15 05:28:14;;;;;;;1.25;0.40;;;;;;;7.67;83.95;98169.88;10444401;28;20550;-77
2023/10/15 05:33:16;;;;;;;3.97;0.90;;;;;;;7.67;83.78;98161.69;10460967;28;20428;-76
2023/10/15 05:38:19;;;;;;;3.75;0.70;;;;;;;8.11;82.58;98153.06;10439286;28;20400;-76
2023/10/15 05:43:21;;;;;;;2.38;0.65;;;;;;;8.95;78.33;98151.44;10460307;28;20048;-76
2023/10/15 05:48:23;;;;;;;3.15;0.90;;;;;;;9.20;76.20;98152.44;10443297;28;20037;-78
2023/10/15 05:53:25;;;;;;;4.28;1.00;;;;;;;8.60;77.92;98156.31;10448922;28;20037;-76
2023/10/15 05:58:28;;;;;;;3.08;0.70;;;;;;;8.81;78.12;98147.34;10452440;28;20231;-77
2023/10/15 06:03:30;;;;;;;3.58;0.82;;;;;;;8.96;77.23;98160.47;10464076;28;20037;-77
2023/10/15 06:08:33;;;;;;;1.42;0.50;;;;;;;8.91;77.65;98169.66;10439126;28;20594;-77
2023/10/15 06:13:35;;;;;;;1.15;0.80;;;;;;;8.75;77.46;98163.16;10452788;28;20049;-76
2023/10/15 06:18:37;;;;;;;1.50;0.50;;;;;;;9.38;75.28;98164.06;10479186;28;20083;-77
2023/10/15 06:23:42;;;;;;;7.85;1.00;;;;;;;10.29;72.30;98151.28;10480695;28;20138;-78
2023/10/15 06:28:45;;;;;;;2.25;0.80;;;;;;;9.75;73.04;98167.78;10460500;28;20412;-77
2023/10/15 06:33:47;;;;;;;2.42;0.75;;;;;;;9.47;73.96;98170.25;10482546;28;20056;-78
2023/10/15 06:38:50;;;;;;;1.55;0.60;;;;;;;10.28;71.35;98166.13;10470993;28;20041;-78
2023/10/15 06:43:53;;;;;;;3.90;0.60;;;;;;;10.13;71.21;98164.00;10447132;28;20037;-78
2023/10/15 06:48:55;;;;;;;3.55;1.00;;;;;;;10.69;68.58;98165.16;10485918;28;20036;-78
2023/10/15 06:53:57;;;;;;;3.13;0.70;;;;;;;11.09;68.32;98157.00;10490912;28;20051;-78
2023/10/15 06:58:59;;;;;;;3.20;0.98;;;;;;;10.60;68.18;98153.50;10445288;28;20040;-78
2023/10/15 07:04:02;;;;;;;4.72;1.10;;;;;;;10.44;68.92;98156.13;10450008;28;20419;-78
2023/10/15 07:09:04;;;;;;;3.72;0.73;;;;;;;11.04;67.70;98156.47;10432126;28;20037;-78
2023/10/15 07:14:08;;;;;;;2.35;0.60;;;;;;;10.14;68.72;98152.72;10448175;28;20051;-79
2023/10/15 07:19:11;;;;;;;3.20;1.00;;;;;;;10.08;70.53;98169.72;10440126;28;20057;-80
2023/10/15 07:24:17;;;;;;;2.05;0.50;;;;;;;11.00;67.51;98166.53;10448797;28;20420;-80
2023/10/15 07:29:23;;;;;;;0.70;0.60;;;;;;;10.01;70.48;98172.19;10452445;28;20041;-79
2023/10/15 07:34:28;;;;;;;2.63;0.52;;;;;;;10.09;70.46;98165.84;10469177;28;20522;-79
2023/10/15 07:39:31;;;;;;;1.23;0.63;;;;;;;9.95;71.46;98179.81;10473288;28;20055;-78
2023/10/15 07:44:34;;;;;;;1.45;0.52;;;;;;;9.50;73.50;98166.03;10422087;28;20052;-79
2023/10/15 07:49:36;;;;;;;2.10;0.75;;;;;;;9.17;74.58;98161.28;10487760;28;20037;-78
2023/10/15 07:54:39;;;;;;;2.55;0.63;;;;;;;9.16;74.74;98158.88;10418141;28;20144;-77
2023/10/15 07:59:42;;;;;;;3.88;1.08;;;;;;;9.27;74.20;98146.41;10462924;28;20064;-78
2023/10/15 08:04:44;;;;;;;2.53;0.70;;;;;;;9.07;75.72;98151.53;10471399;28;20048;-77
2023/10/15 08:09:47;;;;;;;1.95;0.75;;;;;;;9.06;75.25;98155.41;10470747;28;20804;-79
2023/10/15 08:14:50;;;;;;;3.85;0.70;;;;;;;9.21;74.72;98151.28;10473298;28;20064;-78
2023/10/15 08:19:53;;;;;;;3.90;0.80;;;;;;;9.27;75.04;98149.16;10420633;28;20527;-78
2023/10/15 08:24:55;;;;;;;4.25;0.80;;;;;;;9.13;75.81;98145.88;10441236;28;20032;-78
2023/10/15 08:29:58;;;;;;;2.00;0.65;;;;;;;9.19;75.50;98148.06;10444916;28;20040;-78
2023/10/15 08:35:00;;;;;;;1.40;0.63;;;;;;;8.98;76.28;98141.78;10452226;28;20067;-78
2023/10/15 08:40:06;;;;;;;1.45;0.43;;;;;;;8.82;75.95;98143.47;10450204;28;20044;-86
2023/10/15 08:45:08;;;;;;;1.67;0.60;;;;;;;8.97;75.43;98126.50;10454959;28;20423;-87
2023/10/15 08:50:11;;;;;;;2.08;0.70;;;;;;;9.05;74.78;98155.75;10419666;28;20412;-83
2023/10/15 08:55:14;;;;;;;3.55;0.70;;;;;;;8.94;74.75;98147.13;10418737;28;20037;-83
2023/10/15 09:00:27;;;;;;;2.10;1.40;;;;;;;8.93;74.40;98150.19;10410192;28;20048;-84
2023/10/15 09:05:33;;;;;;;1.65;0.70;;;;;;;8.96;73.88;98144.03;10417034;28;20412;-75
2023/10/15 09:10:43;;;;;;;1.88;0.63;;;;;;;8.99;74.14;98148.84;10456587;28;20049;-77
2023/10/15 09:15:49;;;;;;;1.98;0.80;;;;;;;8.91;74.73;98136.84;10470730;28;20036;-75
2023/10/15 09:20:53;;;;;;;2.10;0.87;;;;;;;8.89;77.01;98135.56;10450333;28;20047;-75
2023/10/15 09:25:55;;;;;;;3.10;0.90;;;;;;;8.90;76.78;98148.91;10419294;28;20063;-76
2023/10/15 09:31:09;;;;;;;5.70;0.80;;;;;;;8.90;76.40;98132.50;10462527;28;20032;-78
2023/10/15 09:36:11;;;;;;;1.13;0.75;;;;;;;8.86;76.35;98133.50;10461143;28;20048;-75
2023/10/15 09:41:15;;;;;;;4.55;0.90;;;;;;;8.93;76.63;98125.56;10461500;28;20052;-73
2023/10/15 09:46:20;;;;;;;1.00;0.60;;;;;;;9.13;76.53;98108.38;10454358;28;20059;-76
2023/10/15 09:51:23;;;;;;;3.92;0.90;;;;;;;9.02;75.49;98118.91;10454945;28;20048;-75
2023/10/15 09:56:28;;;;;;;2.00;0.60;;;;;;;9.14;74.01;98118.19;10452462;28;20144;-73
2023/10/15 10:01:30;;;;;;;1.90;0.90;;;;;;;9.28;74.01;98107.78;10439048;28;20053;-73
2023/10/15 10:07:18;;;;;;;2.92;0.88;;;;;;;9.33;73.08;98106.75;10473661;28;20037;-73
2023/10/15 10:12:38;;;;;;;2.63;0.75;;;;;;;9.33;73.07;98104.81;10450470;28;20053;-75
2023/10/15 10:17:40;;;;;;;1.30;0.82;;;;;;;9.43;72.64;98094.63;10451075;28;20163;-77
2023/10/15 10:22:56;;;;;;;2.17;0.80;;;;;;;9.34;72.09;98098.22;10445872;28;20045;-74
2023/10/15 10:28:15;;;;;;;2.92;0.88;;;;;;;9.47;71.71;98068.97;10450718;28;20528;-74
2023/10/15 10:33:48;;;;;;;2.72;0.75;;;;;;;9.63;71.68;98083.63;10469373;28;20045;-79
2023/10/15 10:38:59;;;;;;;3.85;0.85;;;;;;;9.68;71.07;98071.66;10453770;28;20048;-73
2023/10/15 10:44:01;;;;;;;3.78;1.20;;;;;;;9.65;70.19;98075.88;10476042;28;20048;-72
2023/10/15 10:49:13;;;;;;;2.20;1.75;;;;;;;9.59;69.82;98068.22;10458977;28;20025;-73
2023/10/15 10:54:25;;;;;;;1.60;1.17;;;;;;;9.72;70.40;98063.56;10440849;28;20040;-73
2023/10/15 10:59:29;;;;;;;4.20;1.63;;;;;;;9.52;69.49;98079.69;10459388;28;20032;-71
2023/10/15 11:04:31;;;;;;;2.03;0.98;;;;;;;9.61;69.85;98087.84;10469488;28;20033;-73
2023/10/15 11:09:39;;;;;;;1.52;0.60;;;;;;;9.61;69.77;98101.53;10458475;28;20049;-72
2023/10/15 11:14:42;;;;;;;4.78;0.95;;;;;;;9.56;70.39;98080.66;10455049;28;20037;-72
2023/10/15 11:19:44;;;;;;;0.20;0.20;;;;;;;9.44;70.85;98088.81;10485019;28;20056;-72
2023/10/15 11:24:47;;;;;;;1.70;0.40;;;;;;;9.43;71.23;98098.16;10478481;28;20048;-70
2023/10/15 11:29:49;;;;;;;2.38;0.65;;;;;;;9.53;70.81;98080.50;10443551;28;20037;-73
2023/10/15 11:34:51;;;;;;;2.10;0.70;;;;;;;9.47;71.15;98101.81;10457944;28;20037;-71
2023/10/15 11:39:55;;;;;;;1.17;0.65;;;;;;;9.45;72.24;98078.66;10448998;28;20044;-71
2023/10/15 11:44:58;;;;;;;1.65;0.50;;;;;;;9.38;72.15;98092.09;10452233;28;20447;-73
2023/10/15 11:50:00;;;;;;;0.55;0.30;;;;;;;9.34;72.69;98108.34;10465328;28;20047;-72
2023/10/15 11:55:04;;;;;;;3.42;0.80;;;;;;;9.29;73.58;98095.69;10447198;28;20041;-74
2023/10/15 12:00:09;;;;;;;1.60;0.82;;;;;;;9.24;73.86;98095.91;10446823;28;20049;-77
2023/10/15 12:05:11;;;;;;;1.08;0.80;;;;;;;9.15;74.48;98103.34;10441836;28;20586;-71
2023/10/15 12:10:16;;;;;;;3.20;1.38;;;;;;;9.13;74.78;98122.03;10471533;28;20041;-71
2023/10/15 12:15:19;;;;;;;0.50;0.30;;;;;;;9.05;75.60;98104.56;10457547;28;20045;-70
2023/10/15 12:20:21;;;;;;;2.13;0.75;;;;;;;9.05;76.45;98107.31;10464183;28;20061;-70
2023/10/15 12:25:23;;;;;;;0.90;0.60;;;;;;;9.11;76.76;98116.13;10476970;28;20527;-70
2023/10/15 12:30:28;;;;;;;0.70;0.35;;;;;;;9.13;76.53;98123.97;10442754;28;20033;-73
2023/10/15 12:35:31;;;;;;;1.08;0.50;;;;;;;9.13;76.86;98104.84;10473481;28;20044;-72
2023/10/15 12:40:33;;;;;;;0.75;0.65;;;;;;;9.05;78.29;98133.88;10435773;28;20050;-73
2023/10/15 12:45:35;;;;;;;4.28;0.80;;;;;;;9.05;78.82;98147.53;10453702;28;20516;-73
2023/10/15 12:50:38;;;;;;;2.00;0.50;;;;;;;8.81;79.21;98172.75;10472977;28;20048;-74
2023/10/15 12:55:40;;;;;;;2.60;0.40;;;;;;;7.45;84.72;98198.91;10462939;28;20052;-72
2023/10/15 13:00:48;;;;;;;0.70;0.52;;;;;;;6.98;88.90;98197.09;10454942;28;20043;-73
2023/10/15 13:05:50;;;;;;;2.45;0.52;;;;;;;6.79;93.05;98213.72;10476508;28;20029;-73
2023/10/15 13:10:53;;;;;;;3.90;0.70;;;;;;;6.71;94.87;98231.63;10463430;28;20044;-69
2023/10/15 13:15:55;;;;;;;2.00;0.32;;;;;;;6.77;96.63;98229.56;10470532;28;20073;-73
2023/10/15 13:20:57;;;;;;;2.10;0.80;;;;;;;6.85;96.97;98243.22;10482988;28;20041;-73
2023/10/15 13:25:59;;;;;;;1.58;0.43;;;;;;;6.80;95.94;98253.47;10465087;28;20052;-72
2023/10/15 13:31:02;;;;;;;1.20;0.40;;;;;;;6.82;95.82;98259.41;10433947;28;20047;-72
2023/10/15 13:36:05;;;;;;;1.30;0.40;;;;;;;6.83;94.63;98270.00;10433970;28;20029;-72
2023/10/15 13:41:10;;;;;;;0.93;0.40;;;;;;;6.94;92.53;98284.97;10483758;28;20491;-72
2023/10/15 13:46:13;;;;;;;2.58;0.93;;;;;;;6.93;89.81;98288.78;10466821;28;20511;-72
2023/10/15 13:51:15;;;;;;;1.10;0.70;;;;;;;6.84;87.06;98298.06;10481137;28;20044;-73
2023/10/15 13:56:17;;;;;;;0.93;0.60;;;;;;;6.84;84.90;98308.97;10465276;28;20550;-73
2023/10/15 14:01:20;;;;;;;1.75;0.60;;;;;;;6.77;83.30;98331.22;10448495;28;20047;-73
2023/10/15 14:06:22;;;;;;;1.40;0.77;;;;;;;6.75;83.48;98340.81;10483870;28;20416;-73
2023/10/15 14:11:25;;;;;;;2.05;0.40;;;;;;;6.63;81.36;98347.66;10466784;28;20044;-73
2023/10/15 14:16:27;;;;;;;1.08;0.40;;;;;;;6.61;79.24;98351.81;10491605;28;20416;-73
2023/10/15 14:21:30;;;;;;;1.80;0.70;;;;;;;6.49;78.36;98371.44;10439919;28;20044;-73
2023/10/15 14:26:32;;;;;;;1.55;1.00;;;;;;;6.49;77.59;98378.81;10472203;28;20041;-73
2023/10/15 14:31:34;;;;;;;1.08;0.50;;;;;;;6.61;76.72;98396.22;10491957;28;20045;-73
2023/10/15 14:36:40;;;;;;;1.15;0.52;;;;;;;6.57;76.74;98400.66;10456659;28;20053;-74
2023/10/15 14:41:42;;;;;;;2.22;0.73;;;;;;;6.63;76.00;98414.97;10473033;28;20503;-74
2023/10/15 14:46:44;;;;;;;0.82;0.60;;;;;;;6.67;75.11;98426.88;10489906;28;20029;-73
2023/10/15 14:51:46;;;;;;;1.10;0.40;;;;;;;6.71;75.14;98416.13;10490293;28;20052;-73
2023/10/15 14:56:48;;;;;;;0.68;0.40;;;;;;;6.53;76.32;98431.56;10489172;28;20045;-73
2023/10/15 15:01:51;;;;;;;1.55;0.50;;;;;;;6.56;76.59;98452.72;10487993;28;20059;-73
2023/10/15 15:06:55;;;;;;;1.25;0.60;;;;;;;6.60;77.56;98453.75;10471870;28;20050;-73
2023/10/15 15:11:57;;;;;;;1.70;0.40;;;;;;;6.63;77.26;98464.84;10471359;28;20045;-72
2023/10/15 15:16:59;;;;;;;0.95;0.50;;;;;;;6.48;78.49;98467.91;10489350;28;20057;-73
2023/10/15 15:22:04;;;;;;;1.75;0.45;;;;;;;6.31;75.92;98484.91;10455258;28;20071;-73
2023/10/15 15:27:07;;;;;;;0.88;0.70;;;;;;;6.29;76.21;98492.56;10454503;28;20044;-73
2023/10/15 15:32:09;;;;;;;1.77;0.73;;;;;;;6.38;77.47;98514.44;10453743;28;20526;-73
2023/10/15 15:37:11;;;;;;;1.52;0.35;;;;;;;6.16;80.75;98519.81;10488687;28;20206;-73
2023/10/15 15:42:15;;;;;;;0.50;0.35;;;;;;;5.98;82.23;98530.50;10488238;28;20064;-73
2023/10/15 15:47:17;;;;;;;1.45;0.63;;;;;;;5.94;83.12;98528.69;10487027;28;20635;-73
2023/10/15 15:52:19;;;;;;;1.42;1.00;;;;;;;6.09;83.22;98531.13;10488125;28;20048;-73
2023/10/15 15:57:21;;;;;;;1.50;0.63;;;;;;;6.21;83.67;98549.66;10436928;28;20048;-73
2023/10/15 16:02:25;;;;;;;1.17;0.50;;;;;;;6.17;84.79;98565.00;10487301;28;20048;-73
2023/10/15 16:07:28;;;;;;;0.90;0.57;;;;;;;5.97;85.83;98556.13;10470474;28;20044;-72
2023/10/15 16:12:30;;;;;;;2.50;1.02;;;;;;;5.86;86.56;98584.59;10469790;28;20095;-72
2023/10/15 16:17:34;;;;;;;1.88;0.60;;;;;;;5.80;86.95;98593.97;10483575;28;20064;-72
2023/10/15 16:22:38;;;;;;;0.98;0.57;;;;;;;5.82;87.48;98610.00;10460454;28;20048;-72
2023/10/15 16:27:40;;;;;;;1.15;0.57;;;;;;;5.80;88.52;98604.06;10434082;28;20032;-73
2023/10/15 16:32:43;;;;;;;1.17;0.60;;;;;;;5.81;87.66;98600.22;10442830;28;20049;-75
2023/10/15 16:37:45;;;;;;;2.30;0.90;;;;;;;5.83;87.89;98603.44;10485825;28;20504;-75
2023/10/15 16:42:47;;;;;;;1.73;1.23;;;;;;;5.77;87.83;98610.91;10452424;28;20048;-76
2023/10/15 16:47:50;;;;;;;0.30;0.30;;;;;;;5.74;87.04;98612.31;10452273;28;20401;-78
2023/10/15 16:52:52;;;;;;;0.75;0.57;;;;;;;5.81;87.54;98633.69;10450442;28;20040;-76
2023/10/15 16:57:54;;;;;;;2.50;0.50;;;;;;;5.92;87.50;98631.63;10476030;28;20055;-77
2023/10/15 17:02:57;;;;;;;1.50;0.70;;;;;;;5.88;88.04;98636.00;10461505;28;20041;-76
2023/10/15 17:08:00;;;;;;;1.30;0.57;;;;;;;5.83;88.98;98636.91;10433274;28;20048;-75
2023/10/15 17:13:04;;;;;;;1.88;0.55;;;;;;;5.75;89.26;98649.31;10441403;28;20042;-74
2023/10/15 17:18:06;;;;;;;1.02;0.28;;;;;;;5.87;88.79;98653.44;10450674;28;20161;-73
2023/10/15 17:23:08;;;;;;;0.20;0.20;;;;;;;5.79;89.15;98656.88;10425153;28;20045;-73
2023/10/15 17:28:11;;;;;;;1.35;0.40;;;;;;;5.75;89.50;98673.81;10474821;28;20048;-73
2023/10/15 17:33:14;;;;;;;0.82;0.55;;;;;;;5.79;89.13;98667.75;10442222;28;20041;-74
2023/10/15 17:38:18;;;;;;;0.30;0.30;;;;;;;5.47;90.49;98671.25;10408275;28;20049;-73
2023/10/15 17:43:22;;;;;;;0.55;0.50;;;;;;;5.38;90.81;98684.69;10423068;28;20095;-73
2023/10/15 17:48:24;;;;;;;0.75;0.40;;;;;;;5.34;90.52;98689.94;10411555;28;20033;-74
2023/10/15 17:53:28;;;;;;;0.80;0.70;;;;;;;5.32;90.93;98692.13;10450096;28;20048;-78
2023/10/15 17:58:31;;;;;;;1.33;0.47;;;;;;;5.36;91.24;98704.03;10438231;28;20034;-80
2023/10/15 18:03:34;;;;;;;3.20;1.08;;;;;;;5.37;91.58;98711.09;10452599;28;20045;-78
2023/10/15 18:08:36;;;;;;;1.10;0.40;;;;;;;5.44;91.34;98721.63;10416139;28;20416;-80
2023/10/15 18:13:40;;;;;;;2.90;1.02;;;;;;;5.53;91.25;98733.44;10425804;28;20061;-80
2023/10/15 18:18:43;;;;;;;0.38;0.30;;;;;;;5.56;90.56;98745.69;10434281;28;20053;-79
2023/10/15 18:23:45;;;;;;;0.47;0.30;;;;;;;5.61;89.91;98734.72;10449273;28;20043;-83
2023/10/15 18:28:48;;;;;;;0.50;0.43;;;;;;;5.53;90.68;98754.41;10449804;28;20048;-83
2023/10/15 18:33:50;;;;;;;1.92;0.50;;;;;;;5.57;90.34;98766.34;10442675;28;20052;-80
2023/10/15 18:38:55;;;;;;;0.40;0.40;;;;;;;5.61;89.21;98780.97;10447944;28;20045;-79
2023/10/15 18:44:00;;;;;;;0.55;0.30;;;;;;;5.57;89.00;98785.38;10457680;28;20037;-78
2023/10/15 18:49:04;;;;;;;0.75;0.40;;;;;;;5.57;89.63;98794.34;10403162;28;20041;-78
2023/10/15 18:54:06;;;;;;;1.17;0.43;;;;;;;5.51;88.98;98803.66;10451938;28;20041;-78
2023/10/15 18:59:12;;;;;;;0.40;0.40;;;;;;;5.48;88.88;98811.59;10420492;28;20049;-78
2023/10/15 19:04:15;;;;;;;0.60;0.57;;;;;;;5.46;88.34;98822.78;10439587;28;20044;-78
2023/10/15 19:09:17;;;;;;;1.20;0.70;;;;;;;5.46;86.65;98833.66;10459421;28;20037;-77
2023/10/15 19:14:20;;;;;;;0.70;0.70;;;;;;;5.48;83.21;98841.53;10440679;28;20043;-77
2023/10/15 19:19:22;;;;;;;0.93;0.80;;;;;;;5.48;82.43;98844.25;10397127;28;20077;-74
2023/10/15 19:24:24;;;;;;;0.60;0.50;;;;;;;5.41;81.43;98844.63;10376142;28;20048;-74
2023/10/15 19:29:27;;;;;;;0.80;0.40;;;;;;;5.30;80.52;98854.78;10360702;28;20437;-76
2023/10/15 19:34:29;;;;;;;1.08;0.52;;;;;;;5.23;80.78;98867.13;10365019;28;20048;-75
2023/10/15 19:39:33;;;;;;;0.40;0.40;;;;;;;5.05;79.55;98883.09;10392406;28;20046;-76
2023/10/15 19:44:36;;;;;;;0.60;0.38;;;;;;;4.93;79.91;98890.00;10386847;28;20049;-75
2023/10/15 19:49:39;;;;;;;0.30;0.30;;;;;;;4.82;77.00;98900.16;10385605;28;20042;-78
2023/10/15 19:54:42;;;;;;;0.25;0.25;;;;;;;4.77;74.54;98903.72;10388673;28;20048;-74
2023/10/15 19:59:44;;;;;;;1.40;0.70;;;;;;;4.71;73.83;98912.22;10356832;28;20049;-75
2023/10/15 20:04:47;;;;;;;0.13;0.10;;;;;;;4.61;74.44;98910.38;10399543;28;20038;-75
2023/10/15 20:09:51;;;;;;;0.95;0.45;;;;;;;4.50;74.61;98912.38;10400238;28;20057;-76
2023/10/15 20:14:53;;;;;;;0.30;0.30;;;;;;;4.41;74.60;98916.00;10374158;28;20045;-74
2023/10/15 20:19:55;;;;;;;0.38;0.30;;;;;;;4.35;75.28;98928.81;10441208;28;20048;-76
2023/10/15 20:24:58;;;;;;;0.30;0.30;;;;;;;4.26;76.09;98929.66;10440087;28;20042;-76
2023/10/15 20:30:00;;;;;;;0.68;0.47;;;;;;;4.28;76.72;98925.56;10433042;28;20056;-76
2023/10/15 20:35:03;;;;;;;0.70;0.50;;;;;;;4.25;77.12;98923.44;10384946;28;20050;-75
2023/10/15 20:40:11;;;;;;;0.60;0.50;;;;;;;4.47;77.08;98923.81;10438667;28;20052;-75
2023/10/15 20:45:16;;;;;;;0.70;0.63;;;;;;;4.74;76.61;98931.47;10411199;28;20064;-74
2023/10/15 20:50:19;;;;;;;0.40;0.40;;;;;;;4.75;76.73;98924.94;10411242;28;20041;-75
2023/10/15 20:55:22;;;;;;;0.50;0.50;;;;;;;4.77;76.18;98925.47;10405770;28;20037;-75
2023/10/15 21:00:24;;;;;;;1.27;0.65;;;;;;;4.74;76.86;98925.25;10403432;28;20052;-76
2023/10/15 21:05:27;;;;;;;0.65;0.45;;;;;;;4.55;77.49;98919.69;10420405;28;20037;-76
2023/10/15 21:10:30;;;;;;;0.68;0.57;;;;;;;4.51;77.01;98916.72;10422267;28;20026;-76
2023/10/15 21:15:35;;;;;;;1.65;0.40;;;;;;;4.64;77.32;98926.13;10430161;28;20603;-78
2023/10/15 21:20:37;;;;;;;0.45;0.32;;;;;;;4.77;77.40;98949.13;10410341;28;20053;-77
2023/10/15 21:25:40;;;;;;;0.57;0.50;;;;;;;4.74;77.42;98946.97;10423240;28;20432;-75
2023/10/15 21:30:42;;;;;;;0.73;0.60;;;;;;;4.69;79.49;98944.31;10392815;28;20036;-75
2023/10/15 21:35:44;;;;;;;0.70;0.70;;;;;;;4.72;82.59;98954.59;10419125;28;20337;-75
2023/10/15 21:40:47;;;;;;;0.68;0.50;;;;;;;4.78;85.83;98976.00;10412036;28;20049;-75
2023/10/15 21:45:51;;;;;;;0.63;0.63;;;;;;;4.76;88.62;98977.38;10400960;28;20033;-75
2023/10/15 21:50:53;;;;;;;0.40;0.40;;;;;;;4.68;90.63;98957.06;10387140;28;20038;-74
2023/10/15 21:55:55;;;;;;;0.52;0.40;;;;;;;4.67;91.80;98960.88;10381593;28;20046;-75
2023/10/15 22:00:57;;;;;;;0.32;0.30;;;;;;;4.60;92.89;98959.56;10386024;28;20045;-75
2023/10/15 22:06:00;;;;;;;0.90;0.50;;;;;;;4.54;93.27;98959.63;10398842;28;20041;-76
2023/10/15 22:11:07;;;;;;;0.38;0.38;;;;;;;4.56;93.78;98974.81;10403309;28;20040;-76
2023/10/15 22:16:09;;;;;;;0.93;0.50;;;;;;;4.60;94.82;98946.00;10425448;28;20072;-76
2023/10/15 22:21:14;;;;;;;1.52;0.30;;;;;;;4.55;94.94;98949.56;10413087;28;20033;-75
2023/10/15 22:26:17;;;;;;;0.70;0.30;;;;;;;4.54;94.65;98940.59;10399704;28;20038;-77
2023/10/15 22:31:20;;;;;;;0.55;0.30;;;;;;;4.61;94.61;98944.91;10413638;28;20041;-75
2023/10/15 22:36:26;;;;;;;0.30;0.30;;;;;;;4.62;94.55;98955.47;10436134;28;20041;-75
2023/10/15 22:41:29;;;;;;;0.40;0.40;;;;;;;4.66;95.05;98961.16;10407600;28;20044;-75
2023/10/15 22:46:31;;;;;;;0.30;0.28;;;;;;;4.73;94.98;98953.50;10418714;28;20508;-75
2023/10/15 22:51:33;;;;;;;0.32;0.30;;;;;;;4.73;94.95;98961.66;10447471;28;20029;-75
2023/10/15 22:56:36;;;;;;;0.43;0.20;;;;;;;4.69;94.96;98955.97;10415025;28;20041;-76
2023/10/15 23:01:39;;;;;;;0.45;0.30;;;;;;;4.74;95.56;98957.84;10413429;28;20042;-75
2023/10/15 23:06:41;;;;;;;0.68;0.20;;;;;;;4.79;95.45;98968.66;10454663;28;20045;-75
2023/10/15 23:11:43;;;;;;;0.90;0.20;;;;;;;4.73;95.56;98962.47;10411563;28;20474;-75
2023/10/15 23:16:45;;;;;;;0.30;0.22;;;;;;;4.75;95.25;98973.84;10414345;28;20049;-76
2023/10/15 23:21:54;;;;;;;0.25;0.20;;;;;;;4.78;95.53;98984.16;10450594;28;20520;-76
2023/10/15 23:26:57;;;;;;;1.45;0.28;;;;;;;4.72;94.79;98976.34;10410163;28;20044;-75
2023/10/15 23:31:59;;;;;;;0.60;0.20;;;;;;;4.66;94.96;98956.53;10409928;28;20037;-76
2023/10/15 23:37:06;;;;;;;0.47;0.38;;;;;;;4.57;95.46;98981.88;10446622;28;20076;-76
2023/10/15 23:42:08;;;;;;;0.17;0.17;;;;;;;4.54;95.58;98983.25;10411358;28;20029;-75
2023/10/15 23:47:15;;;;;;;0.55;0.25;;;;;;;4.47;95.55;98986.28;10411415;28;20041;-76
2023/10/15 23:52:20;;;;;;;1.63;0.83;;;;;;;4.37;95.54;98993.69;10387125;28;20405;-75